HST,Max TemperatureF,Mean TemperatureF,Min TemperatureF,Max Dew PointF,MeanDew PointF,Min DewpointF,Max Humidity, Mean Humidity, Min Humidity, Max Sea Level PressureIn, Mean Sea Level PressureIn, Min Sea Level PressureIn, Max VisibilityMiles, Mean VisibilityMiles, Min VisibilityMiles, Max Wind SpeedMPH, Mean Wind SpeedMPH, Max Gust SpeedMPH,PrecipitationIn, CloudCover, Events, WindDirDegrees
2012-12-1,82,76,71,70,65,58,85,70,43,30.07,30.02,29.95,10,10,6,9,2,,0.00,2,,325
2012-12-2,86,78,71,70,66,57,92,71,42,30.05,29.95,29.87,10,10,10,14,5,22,0.00,0,,188
2012-12-3,81,77,73,73,70,66,95,79,69,30.00,29.94,29.88,10,10,6,13,6,,0.00,4,Rain,209
2012-12-4,80,76,73,75,73,70,100,89,73,30.06,30.00,29.94,10,9,6,9,3,,0.00,5,Rain-Thunderstorm,123
2012-12-5,80,76,73,75,73,70,100,90,75,30.11,30.04,29.99,10,9,6,8,3,,0.00,5,Thunderstorm,88
2012-12-6,80,76,72,73,70,66,95,82,65,30.01,29.97,29.90,10,10,6,13,2,20,0.00,5,,125
2012-12-7,82,78,73,72,68,64,95,75,57,30.01,29.94,29.87,10,10,6,7,2,,0.00,4,,80
2012-12-8,80,76,73,70,69,67,89,76,65,30.01,29.95,29.89,10,9,6,15,7,28,0.00,6,,88
2012-12-9,80,76,73,70,68,66,83,76,65,30.02,29.96,29.89,10,10,6,16,11,25,0.00,6,Rain,87
2012-12-10,82,78,73,70,66,62,86,71,54,30.08,30.01,29.96,10,9,6,15,11,28,0.00,5,,85
2012-12-11,80,76,73,69,65,63,78,67,57,30.12,30.07,30.02,10,9,6,15,11,25,0.00,5,Rain,79
2012-12-12,81,76,72,68,65,64,83,72,59,30.14,30.09,30.04,10,9,6,18,13,33,0.00,5,Rain,77
2012-12-13,82,78,73,70,66,64,91,71,57,30.18,30.13,30.07,10,9,6,20,13,32,0.00,7,Rain,76
2012-12-14,80,76,73,72,66,63,89,71,55,30.17,30.13,30.09,10,9,6,17,14,36,0.00,6,Rain,77
2012-12-15,78,74,71,72,67,63,94,77,65,30.15,30.12,30.06,10,9,6,15,11,34,0.00,6,Rain,82
2012-12-16,82,78,73,76,68,64,93,77,54,30.14,30.10,30.04,10,9,6,20,14,34,0.00,6,Rain,75
2012-12-17,77,74,71,75,69,66,100,86,73,30.15,30.12,30.07,10,9,6,18,13,32,0.00,6,Rain,73
2012-12-18,77,74,71,72,69,65,95,84,65,30.13,30.09,30.04,10,9,6,16,11,31,0.00,7,Rain,85
2012-12-19,80,76,71,71,68,66,98,78,65,30.10,30.05,29.99,10,9,6,18,12,30,0.01,6,Rain,80
2012-12-20,77,75,73,70,65,62,81,72,62,30.08,30.05,29.99,10,9,6,17,14,30,0.00,7,Rain,74
2012-12-21,78,75,72,66,63,60,80,67,59,30.07,30.03,30.00,10,10,6,16,12,30,0.00,4,Rain,80
2012-12-22,82,76,71,66,63,61,78,66,50,30.08,30.03,29.95,10,9,6,14,9,24,0.00,4,,95
2012-12-23,80,76,71,68,63,58,83,66,48,30.04,29.99,29.93,10,10,6,12,5,16,0.00,4,,61
2012-12-24,78,74,69,72,68,62,95,83,76,30.05,29.99,29.93,10,10,6,6,1,,0.00,3,,288
2012-12-25,80,76,71,74,69,65,100,83,69,30.07,30.03,29.99,10,9,6,12,4,20,0.00,5,,103
2012-12-26,80,76,73,66,65,64,78,68,59,30.09,30.04,29.96,10,9,6,16,9,25,0.00,4,,90
2012-12-27,79,75,71,66,64,63,79,69,57,30.06,30.00,29.94,10,9,6,12,7,21,0.00,4,Rain,91
2012-12-28,82,76,71,69,65,63,86,71,52,30.00,29.96,29.90,10,10,10,9,3,,0.00,2,,108
2012-12-29,78,74,71,70,68,66,88,79,67,30.04,29.98,29.93,10,9,6,7,2,,0.00,3,,63
2012-12-30,79,74,69,72,70,67,100,91,73,30.05,30.01,29.95,10,9,6,14,3,22,0.00,6,Rain,127
2012-12-31,78,74,71,76,71,68,99,87,76,30.11,30.04,29.98,10,9,6,12,3,,0.03,5,Rain,337